sensor_id;sensor_type;location;lat;lon;timestamp;temperature;humidity
10175;DHT22;18221;38.704;0.152;2022-08-19T00:13:19;24.10;99.90
10175;DHT22;18221;38.704;0.152;2022-08-19T00:15:47;24.10;99.90
10175;DHT22;18221;38.704;0.152;2022-08-19T00:18:16;24.10;99.90
10175;DHT22;18221;38.704;0.152;2022-08-19T00:20:44;24.10;99.90
10175;DHT22;18221;38.704;0.152;2022-08-19T00:23:12;24.10;99.90
10175;DHT22;18221;38.704;0.152;2022-08-19T00:25:40;24.00;99.90
10175;DHT22;18221;38.704;0.152;2022-08-19T00:28:08;24.10;99.90
10175;DHT22;18221;38.704;0.152;2022-08-19T00:30:37;24.00;99.90
10175;DHT22;18221;38.704;0.152;2022-08-19T00:33:06;24.00;99.90
10175;DHT22;18221;38.704;0.152;2022-08-19T00:35:34;24.00;99.90
10175;DHT22;18221;38.704;0.152;2022-08-19T00:38:04;24.10;99.90
10175;DHT22;18221;38.704;0.152;2022-08-19T00:40:32;24.10;99.90
10175;DHT22;18221;38.704;0.152;2022-08-19T00:43:00;24.10;99.90
10175;DHT22;18221;38.704;0.152;2022-08-19T00:45:29;24.10;99.90
10175;DHT22;18221;38.704;0.152;2022-08-19T00:48:00;24.10;99.90
10175;DHT22;18221;38.704;0.152;2022-08-19T00:50:30;24.20;99.90
10175;DHT22;18221;38.704;0.152;2022-08-19T00:52:59;24.20;99.90
10175;DHT22;18221;38.704;0.152;2022-08-19T00:55:31;24.30;99.90
10175;DHT22;18221;38.704;0.152;2022-08-19T00:58:02;24.30;99.90
10175;DHT22;18221;38.704;0.152;2022-08-19T01:00:34;24.30;99.90
10175;DHT22;18221;38.704;0.152;2022-08-19T01:03:05;24.30;99.90
10175;DHT22;18221;38.704;0.152;2022-08-19T01:05:36;24.30;99.90
10175;DHT22;18221;38.704;0.152;2022-08-19T01:08:07;24.40;99.90
10175;DHT22;18221;38.704;0.152;2022-08-19T01:10:40;24.40;99.90
10175;DHT22;18221;38.704;0.152;2022-08-19T01:13:13;24.40;99.90
10175;DHT22;18221;38.704;0.152;2022-08-19T01:15:44;24.40;99.90
10175;DHT22;18221;38.704;0.152;2022-08-19T01:18:19;24.40;99.90
10175;DHT22;18221;38.704;0.152;2022-08-19T01:20:48;24.40;99.90
10175;DHT22;18221;38.704;0.152;2022-08-19T01:23:22;24.40;99.90
10175;DHT22;18221;38.704;0.152;2022-08-19T01:26:11;24.40;99.90
10175;DHT22;18221;38.704;0.152;2022-08-19T01:28:41;24.40;99.90
10175;DHT22;18221;38.704;0.152;2022-08-19T01:31:13;24.40;99.90
10175;DHT22;18221;38.704;0.152;2022-08-19T01:33:42;24.40;99.90
10175;DHT22;18221;38.704;0.152;2022-08-19T01:36:12;24.40;99.90
10175;DHT22;18221;38.704;0.152;2022-08-19T01:38:44;24.40;99.90
10175;DHT22;18221;38.704;0.152;2022-08-19T01:41:12;24.40;99.90
10175;DHT22;18221;38.704;0.152;2022-08-19T01:43:41;24.40;99.90
10175;DHT22;18221;38.704;0.152;2022-08-19T01:46:08;24.40;99.90
10175;DHT22;18221;38.704;0.152;2022-08-19T01:48:38;24.40;99.90
10175;DHT22;18221;38.704;0.152;2022-08-19T01:51:09;24.40;99.90
10175;DHT22;18221;38.704;0.152;2022-08-19T01:53:38;24.40;99.90
10175;DHT22;18221;38.704;0.152;2022-08-19T01:56:09;24.40;99.90
10175;DHT22;18221;38.704;0.152;2022-08-19T01:58:41;24.30;99.90
10175;DHT22;18221;38.704;0.152;2022-08-19T02:01:15;24.30;99.90
10175;DHT22;18221;38.704;0.152;2022-08-19T02:03:43;24.30;99.90
10175;DHT22;18221;38.704;0.152;2022-08-19T02:06:12;24.40;99.90
10175;DHT22;18221;38.704;0.152;2022-08-19T02:08:40;24.40;99.90
10175;DHT22;18221;38.704;0.152;2022-08-19T02:11:18;24.40;99.90
10175;DHT22;18221;38.704;0.152;2022-08-19T02:13:48;24.30;99.90
10175;DHT22;18221;38.704;0.152;2022-08-19T02:16:17;24.30;99.90
10175;DHT22;18221;38.704;0.152;2022-08-19T02:18:46;24.30;99.90
10175;DHT22;18221;38.704;0.152;2022-08-19T02:21:15;24.30;99.90
10175;DHT22;18221;38.704;0.152;2022-08-19T02:23:44;24.30;99.90
10175;DHT22;18221;38.704;0.152;2022-08-19T02:26:13;24.30;99.90
10175;DHT22;18221;38.704;0.152;2022-08-19T02:28:42;24.20;99.90
10175;DHT22;18221;38.704;0.152;2022-08-19T02:31:12;24.20;99.90
10175;DHT22;18221;38.704;0.152;2022-08-19T02:33:42;24.20;99.90
10175;DHT22;18221;38.704;0.152;2022-08-19T02:36:12;24.20;99.90
10175;DHT22;18221;38.704;0.152;2022-08-19T02:38:42;24.20;99.90
10175;DHT22;18221;38.704;0.152;2022-08-19T02:41:14;24.10;99.90
10175;DHT22;18221;38.704;0.152;2022-08-19T02:43:45;24.10;99.90
10175;DHT22;18221;38.704;0.152;2022-08-19T02:46:15;24.10;99.90
10175;DHT22;18221;38.704;0.152;2022-08-19T02:48:47;24.10;99.90
10175;DHT22;18221;38.704;0.152;2022-08-19T02:51:17;24.00;99.90
10175;DHT22;18221;38.704;0.152;2022-08-19T02:53:46;24.00;99.90
10175;DHT22;18221;38.704;0.152;2022-08-19T02:56:16;24.00;99.90
10175;DHT22;18221;38.704;0.152;2022-08-19T02:58:44;24.00;99.90
10175;DHT22;18221;38.704;0.152;2022-08-19T03:01:20;24.00;99.90
10175;DHT22;18221;38.704;0.152;2022-08-19T03:03:49;24.00;99.90
10175;DHT22;18221;38.704;0.152;2022-08-19T03:06:18;24.00;99.90
10175;DHT22;18221;38.704;0.152;2022-08-19T03:08:48;23.90;99.90
10175;DHT22;18221;38.704;0.152;2022-08-19T03:11:21;23.90;99.90
10175;DHT22;18221;38.704;0.152;2022-08-19T03:13:51;23.90;99.90
10175;DHT22;18221;38.704;0.152;2022-08-19T03:16:22;23.90;99.90
10175;DHT22;18221;38.704;0.152;2022-08-19T03:18:52;23.90;99.90
10175;DHT22;18221;38.704;0.152;2022-08-19T03:21:24;23.90;99.90
10175;DHT22;18221;38.704;0.152;2022-08-19T03:23:54;23.80;99.90
10175;DHT22;18221;38.704;0.152;2022-08-19T03:26:24;23.80;99.90
10175;DHT22;18221;38.704;0.152;2022-08-19T03:28:53;23.80;99.90
10175;DHT22;18221;38.704;0.152;2022-08-19T03:31:23;23.70;99.90
10175;DHT22;18221;38.704;0.152;2022-08-19T03:33:51;23.70;99.90
10175;DHT22;18221;38.704;0.152;2022-08-19T03:36:22;23.70;99.90
10175;DHT22;18221;38.704;0.152;2022-08-19T03:38:54;23.70;99.90
10175;DHT22;18221;38.704;0.152;2022-08-19T03:41:27;23.70;99.90
10175;DHT22;18221;38.704;0.152;2022-08-19T03:43:57;23.70;99.90
10175;DHT22;18221;38.704;0.152;2022-08-19T03:46:29;23.60;99.90
10175;DHT22;18221;38.704;0.152;2022-08-19T03:49:00;23.60;99.90
10175;DHT22;18221;38.704;0.152;2022-08-19T03:51:35;23.60;99.90
10175;DHT22;18221;38.704;0.152;2022-08-19T03:54:07;23.60;99.90
10175;DHT22;18221;38.704;0.152;2022-08-19T03:56:39;23.50;99.90
10175;DHT22;18221;38.704;0.152;2022-08-19T03:59:10;23.50;99.90
10175;DHT22;18221;38.704;0.152;2022-08-19T04:01:40;23.50;99.90
10175;DHT22;18221;38.704;0.152;2022-08-19T04:04:08;23.50;99.90
10175;DHT22;18221;38.704;0.152;2022-08-19T04:06:38;23.50;99.90
10175;DHT22;18221;38.704;0.152;2022-08-19T04:09:09;23.50;99.90
10175;DHT22;18221;38.704;0.152;2022-08-19T04:11:41;23.50;99.90
10175;DHT22;18221;38.704;0.152;2022-08-19T04:14:11;23.40;99.90
10175;DHT22;18221;38.704;0.152;2022-08-19T04:16:41;23.40;99.90
10175;DHT22;18221;38.704;0.152;2022-08-19T04:19:11;23.40;99.90
10175;DHT22;18221;38.704;0.152;2022-08-19T04:21:39;23.40;99.90
10175;DHT22;18221;38.704;0.152;2022-08-19T04:24:11;23.40;99.90
10175;DHT22;18221;38.704;0.152;2022-08-19T04:26:41;23.40;99.90
10175;DHT22;18221;38.704;0.152;2022-08-19T04:29:12;23.40;99.90
10175;DHT22;18221;38.704;0.152;2022-08-19T04:31:43;23.40;99.90
10175;DHT22;18221;38.704;0.152;2022-08-19T04:34:14;23.40;99.90
10175;DHT22;18221;38.704;0.152;2022-08-19T04:36:44;23.40;99.90
10175;DHT22;18221;38.704;0.152;2022-08-19T04:39:15;23.30;99.90
10175;DHT22;18221;38.704;0.152;2022-08-19T04:41:47;23.30;99.90
10175;DHT22;18221;38.704;0.152;2022-08-19T04:44:33;23.20;99.90
10175;DHT22;18221;38.704;0.152;2022-08-19T04:47:03;23.20;99.90
10175;DHT22;18221;38.704;0.152;2022-08-19T04:49:32;23.20;99.90
10175;DHT22;18221;38.704;0.152;2022-08-19T04:52:00;23.20;99.90
10175;DHT22;18221;38.704;0.152;2022-08-19T04:54:28;23.20;99.90
10175;DHT22;18221;38.704;0.152;2022-08-19T04:56:57;23.10;99.90
10175;DHT22;18221;38.704;0.152;2022-08-19T04:59:25;23.10;99.90
10175;DHT22;18221;38.704;0.152;2022-08-19T05:01:53;23.10;99.90
10175;DHT22;18221;38.704;0.152;2022-08-19T05:04:21;23.10;99.90
10175;DHT22;18221;38.704;0.152;2022-08-19T05:06:48;23.10;99.90
10175;DHT22;18221;38.704;0.152;2022-08-19T05:09:19;23.00;99.90
10175;DHT22;18221;38.704;0.152;2022-08-19T05:11:47;23.10;99.90
10175;DHT22;18221;38.704;0.152;2022-08-19T05:14:20;23.10;99.90
10175;DHT22;18221;38.704;0.152;2022-08-19T05:16:48;23.00;99.90
10175;DHT22;18221;38.704;0.152;2022-08-19T05:19:16;23.00;99.90
10175;DHT22;18221;38.704;0.152;2022-08-19T05:22:01;23.00;99.90
10175;DHT22;18221;38.704;0.152;2022-08-19T05:24:47;23.00;99.90
10175;DHT22;18221;38.704;0.152;2022-08-19T05:27:15;23.00;99.90
10175;DHT22;18221;38.704;0.152;2022-08-19T05:29:44;23.00;99.90
10175;DHT22;18221;38.704;0.152;2022-08-19T05:32:12;23.00;99.90
10175;DHT22;18221;38.704;0.152;2022-08-19T05:34:40;22.90;99.90
10175;DHT22;18221;38.704;0.152;2022-08-19T05:37:08;22.90;99.90
10175;DHT22;18221;38.704;0.152;2022-08-19T05:39:37;23.00;99.90
10175;DHT22;18221;38.704;0.152;2022-08-19T05:42:07;23.00;99.90
10175;DHT22;18221;38.704;0.152;2022-08-19T05:44:38;23.00;99.90
10175;DHT22;18221;38.704;0.152;2022-08-19T05:47:12;23.00;99.90
10175;DHT22;18221;38.704;0.152;2022-08-19T05:49:42;23.00;99.90
10175;DHT22;18221;38.704;0.152;2022-08-19T05:52:12;23.00;99.90
10175;DHT22;18221;38.704;0.152;2022-08-19T05:54:43;23.00;99.90
10175;DHT22;18221;38.704;0.152;2022-08-19T05:57:13;23.00;99.90
10175;DHT22;18221;38.704;0.152;2022-08-19T05:59:42;23.00;99.90
10175;DHT22;18221;38.704;0.152;2022-08-19T06:02:11;23.00;99.90
10175;DHT22;18221;38.704;0.152;2022-08-19T06:04:40;23.00;99.90
10175;DHT22;18221;38.704;0.152;2022-08-19T06:07:09;23.00;99.90
10175;DHT22;18221;38.704;0.152;2022-08-19T06:09:37;23.00;99.90
10175;DHT22;18221;38.704;0.152;2022-08-19T06:12:06;23.00;99.90
10175;DHT22;18221;38.704;0.152;2022-08-19T06:14:35;23.00;99.90
10175;DHT22;18221;38.704;0.152;2022-08-19T06:17:03;23.00;99.90
10175;DHT22;18221;38.704;0.152;2022-08-19T06:19:33;23.00;99.90
10175;DHT22;18221;38.704;0.152;2022-08-19T06:22:01;23.00;99.90
10175;DHT22;18221;38.704;0.152;2022-08-19T06:24:29;23.00;99.90
10175;DHT22;18221;38.704;0.152;2022-08-19T06:26:58;23.10;99.90
10175;DHT22;18221;38.704;0.152;2022-08-19T06:29:27;23.10;99.90
10175;DHT22;18221;38.704;0.152;2022-08-19T06:31:57;23.10;99.90
10175;DHT22;18221;38.704;0.152;2022-08-19T06:34:27;23.10;99.90
10175;DHT22;18221;38.704;0.152;2022-08-19T06:36:59;23.20;99.90
10175;DHT22;18221;38.704;0.152;2022-08-19T06:39:31;23.20;99.90
10175;DHT22;18221;38.704;0.152;2022-08-19T06:42:02;23.30;99.90
10175;DHT22;18221;38.704;0.152;2022-08-19T06:44:35;23.30;99.90
10175;DHT22;18221;38.704;0.152;2022-08-19T06:47:06;23.40;99.90
10175;DHT22;18221;38.704;0.152;2022-08-19T06:49:36;23.50;99.90
10175;DHT22;18221;38.704;0.152;2022-08-19T06:52:06;23.50;99.90
10175;DHT22;18221;38.704;0.152;2022-08-19T06:54:34;23.50;99.90
10175;DHT22;18221;38.704;0.152;2022-08-19T06:57:02;23.60;99.90
10175;DHT22;18221;38.704;0.152;2022-08-19T06:59:32;23.70;99.90
10175;DHT22;18221;38.704;0.152;2022-08-19T07:02:02;23.70;99.90
10175;DHT22;18221;38.704;0.152;2022-08-19T07:04:33;23.80;99.90
10175;DHT22;18221;38.704;0.152;2022-08-19T07:07:07;23.80;99.90
10175;DHT22;18221;38.704;0.152;2022-08-19T07:09:41;23.90;99.90
10175;DHT22;18221;38.704;0.152;2022-08-19T07:12:13;23.90;99.90
10175;DHT22;18221;38.704;0.152;2022-08-19T07:14:41;24.00;99.90
10175;DHT22;18221;38.704;0.152;2022-08-19T07:17:12;24.10;99.90
10175;DHT22;18221;38.704;0.152;2022-08-19T07:19:40;24.20;99.90
10175;DHT22;18221;38.704;0.152;2022-08-19T07:22:10;24.40;99.90
10175;DHT22;18221;38.704;0.152;2022-08-19T07:24:38;24.60;99.90
10175;DHT22;18221;38.704;0.152;2022-08-19T07:27:07;24.80;99.90
10175;DHT22;18221;38.704;0.152;2022-08-19T07:29:36;25.10;99.90
10175;DHT22;18221;38.704;0.152;2022-08-19T07:32:05;25.30;99.90
10175;DHT22;18221;38.704;0.152;2022-08-19T07:34:35;25.50;99.90
10175;DHT22;18221;38.704;0.152;2022-08-19T07:37:04;25.70;99.90
10175;DHT22;18221;38.704;0.152;2022-08-19T07:39:35;26.00;99.90
10175;DHT22;18221;38.704;0.152;2022-08-19T07:42:06;26.30;99.90
10175;DHT22;18221;38.704;0.152;2022-08-19T07:44:37;26.30;99.90
10175;DHT22;18221;38.704;0.152;2022-08-19T07:47:05;26.40;99.90
10175;DHT22;18221;38.704;0.152;2022-08-19T07:49:34;26.60;99.90
10175;DHT22;18221;38.704;0.152;2022-08-19T07:52:05;26.60;99.90
10175;DHT22;18221;38.704;0.152;2022-08-19T07:54:38;26.70;99.90
10175;DHT22;18221;38.704;0.152;2022-08-19T07:57:08;26.90;99.90
10175;DHT22;18221;38.704;0.152;2022-08-19T07:59:36;27.00;99.90
10175;DHT22;18221;38.704;0.152;2022-08-19T08:02:05;26.90;99.90
10175;DHT22;18221;38.704;0.152;2022-08-19T08:04:33;27.00;99.90
10175;DHT22;18221;38.704;0.152;2022-08-19T08:07:18;27.10;99.90
10175;DHT22;18221;38.704;0.152;2022-08-19T08:10:07;27.20;99.90
10175;DHT22;18221;38.704;0.152;2022-08-19T08:12:37;27.20;99.90
10175;DHT22;18221;38.704;0.152;2022-08-19T08:15:09;27.20;99.90
10175;DHT22;18221;38.704;0.152;2022-08-19T08:17:42;27.00;99.90
10175;DHT22;18221;38.704;0.152;2022-08-19T08:20:11;27.00;99.90
10175;DHT22;18221;38.704;0.152;2022-08-19T08:22:43;27.10;99.90
10175;DHT22;18221;38.704;0.152;2022-08-19T08:25:31;27.00;99.90
10175;DHT22;18221;38.704;0.152;2022-08-19T08:28:02;27.00;99.90
10175;DHT22;18221;38.704;0.152;2022-08-19T08:30:31;27.00;99.90
10175;DHT22;18221;38.704;0.152;2022-08-19T08:33:01;27.00;99.90
10175;DHT22;18221;38.704;0.152;2022-08-19T08:35:30;27.00;99.90
10175;DHT22;18221;38.704;0.152;2022-08-19T08:37:59;27.10;99.90
10175;DHT22;18221;38.704;0.152;2022-08-19T08:40:38;27.00;99.90
10175;DHT22;18221;38.704;0.152;2022-08-19T08:43:22;27.00;99.90
10175;DHT22;18221;38.704;0.152;2022-08-19T08:45:59;27.00;99.90
10175;DHT22;18221;38.704;0.152;2022-08-19T08:48:37;27.00;99.90
10175;DHT22;18221;38.704;0.152;2022-08-19T08:51:12;26.90;99.90
10175;DHT22;18221;38.704;0.152;2022-08-19T08:53:47;27.00;99.90
10175;DHT22;18221;38.704;0.152;2022-08-19T08:56:19;27.20;99.90
10175;DHT22;18221;38.704;0.152;2022-08-19T08:58:59;27.30;99.90
10175;DHT22;18221;38.704;0.152;2022-08-19T09:01:32;27.30;99.90
10175;DHT22;18221;38.704;0.152;2022-08-19T09:04:03;27.30;99.90
10175;DHT22;18221;38.704;0.152;2022-08-19T09:06:38;27.20;99.90
10175;DHT22;18221;38.704;0.152;2022-08-19T09:09:16;27.20;99.90
10175;DHT22;18221;38.704;0.152;2022-08-19T09:11:56;27.10;99.90
10175;DHT22;18221;38.704;0.152;2022-08-19T09:14:41;27.10;99.90
10175;DHT22;18221;38.704;0.152;2022-08-19T09:17:15;27.10;99.90
10175;DHT22;18221;38.704;0.152;2022-08-19T09:19:55;27.10;99.90
10175;DHT22;18221;38.704;0.152;2022-08-19T09:22:24;27.20;99.90
10175;DHT22;18221;38.704;0.152;2022-08-19T09:24:54;27.20;99.90
10175;DHT22;18221;38.704;0.152;2022-08-19T09:27:24;27.20;99.90
10175;DHT22;18221;38.704;0.152;2022-08-19T09:29:54;27.20;99.90
10175;DHT22;18221;38.704;0.152;2022-08-19T09:32:22;27.40;99.90
10175;DHT22;18221;38.704;0.152;2022-08-19T09:34:53;27.40;99.90
10175;DHT22;18221;38.704;0.152;2022-08-19T09:37:23;27.30;99.90
10175;DHT22;18221;38.704;0.152;2022-08-19T09:39:52;27.10;99.90
10175;DHT22;18221;38.704;0.152;2022-08-19T09:42:22;27.20;99.90
10175;DHT22;18221;38.704;0.152;2022-08-19T09:44:50;27.20;99.90
10175;DHT22;18221;38.704;0.152;2022-08-19T09:47:18;27.20;99.90
10175;DHT22;18221;38.704;0.152;2022-08-19T09:49:46;27.10;99.90
10175;DHT22;18221;38.704;0.152;2022-08-19T09:52:14;27.20;99.90
10175;DHT22;18221;38.704;0.152;2022-08-19T09:54:44;27.40;99.90
10175;DHT22;18221;38.704;0.152;2022-08-19T09:57:11;27.40;99.90
10175;DHT22;18221;38.704;0.152;2022-08-19T09:59:41;27.30;99.90
10175;DHT22;18221;38.704;0.152;2022-08-19T10:02:10;27.20;99.90
10175;DHT22;18221;38.704;0.152;2022-08-19T10:04:39;27.20;99.90
10175;DHT22;18221;38.704;0.152;2022-08-19T10:07:24;27.30;99.90
10175;DHT22;18221;38.704;0.152;2022-08-19T10:09:51;27.30;99.90
10175;DHT22;18221;38.704;0.152;2022-08-19T10:12:20;27.40;99.90
10175;DHT22;18221;38.704;0.152;2022-08-19T10:14:49;27.40;99.90
10175;DHT22;18221;38.704;0.152;2022-08-19T10:17:19;27.30;99.90
10175;DHT22;18221;38.704;0.152;2022-08-19T10:19:47;27.30;99.90
10175;DHT22;18221;38.704;0.152;2022-08-19T10:22:15;27.40;99.90
10175;DHT22;18221;38.704;0.152;2022-08-19T10:24:45;27.50;99.90
10175;DHT22;18221;38.704;0.152;2022-08-19T10:27:13;27.50;99.90
10175;DHT22;18221;38.704;0.152;2022-08-19T10:29:41;27.50;99.90
10175;DHT22;18221;38.704;0.152;2022-08-19T10:32:11;27.60;99.90
10175;DHT22;18221;38.704;0.152;2022-08-19T10:34:39;27.50;99.90
10175;DHT22;18221;38.704;0.152;2022-08-19T10:37:07;27.50;99.90
10175;DHT22;18221;38.704;0.152;2022-08-19T10:39:35;27.50;99.90
10175;DHT22;18221;38.704;0.152;2022-08-19T10:42:05;27.50;99.90
10175;DHT22;18221;38.704;0.152;2022-08-19T10:44:36;27.60;99.90
10175;DHT22;18221;38.704;0.152;2022-08-19T10:47:04;27.70;99.90
10175;DHT22;18221;38.704;0.152;2022-08-19T10:49:34;27.80;99.90
10175;DHT22;18221;38.704;0.152;2022-08-19T10:52:22;27.70;99.90
10175;DHT22;18221;38.704;0.152;2022-08-19T10:55:02;27.90;99.90
10175;DHT22;18221;38.704;0.152;2022-08-19T10:57:48;27.90;99.90
10175;DHT22;18221;38.704;0.152;2022-08-19T11:00:17;28.00;99.90
10175;DHT22;18221;38.704;0.152;2022-08-19T11:02:48;28.00;99.90
10175;DHT22;18221;38.704;0.152;2022-08-19T11:05:17;27.90;99.90
10175;DHT22;18221;38.704;0.152;2022-08-19T11:07:47;28.00;99.90
10175;DHT22;18221;38.704;0.152;2022-08-19T11:10:17;27.80;99.90
10175;DHT22;18221;38.704;0.152;2022-08-19T11:12:45;27.80;99.90
10175;DHT22;18221;38.704;0.152;2022-08-19T11:15:14;27.70;99.90
10175;DHT22;18221;38.704;0.152;2022-08-19T11:17:42;27.80;99.90
10175;DHT22;18221;38.704;0.152;2022-08-19T11:20:11;28.00;99.90
10175;DHT22;18221;38.704;0.152;2022-08-19T11:22:41;28.00;99.90
10175;DHT22;18221;38.704;0.152;2022-08-19T11:25:10;28.00;99.90
10175;DHT22;18221;38.704;0.152;2022-08-19T11:27:39;28.00;99.90
10175;DHT22;18221;38.704;0.152;2022-08-19T11:30:10;28.00;99.90
10175;DHT22;18221;38.704;0.152;2022-08-19T11:32:39;28.10;99.90
10175;DHT22;18221;38.704;0.152;2022-08-19T11:35:08;28.00;99.90
10175;DHT22;18221;38.704;0.152;2022-08-19T11:37:37;28.00;99.90
10175;DHT22;18221;38.704;0.152;2022-08-19T11:40:08;28.10;99.90
10175;DHT22;18221;38.704;0.152;2022-08-19T11:42:36;28.10;99.90
10175;DHT22;18221;38.704;0.152;2022-08-19T11:45:23;28.20;99.90
10175;DHT22;18221;38.704;0.152;2022-08-19T11:47:51;28.20;99.90
10175;DHT22;18221;38.704;0.152;2022-08-19T11:50:20;28.30;99.90
10175;DHT22;18221;38.704;0.152;2022-08-19T11:52:49;28.20;99.90
10175;DHT22;18221;38.704;0.152;2022-08-19T11:55:19;28.50;99.90
10175;DHT22;18221;38.704;0.152;2022-08-19T11:57:47;28.40;99.90
10175;DHT22;18221;38.704;0.152;2022-08-19T12:00:15;28.60;99.90
10175;DHT22;18221;38.704;0.152;2022-08-19T12:02:43;28.60;99.90
10175;DHT22;18221;38.704;0.152;2022-08-19T12:05:11;28.60;99.90
10175;DHT22;18221;38.704;0.152;2022-08-19T12:07:39;28.60;99.90
10175;DHT22;18221;38.704;0.152;2022-08-19T12:10:08;28.50;99.90
10175;DHT22;18221;38.704;0.152;2022-08-19T12:12:38;28.50;99.90
10175;DHT22;18221;38.704;0.152;2022-08-19T12:15:09;28.50;99.90
10175;DHT22;18221;38.704;0.152;2022-08-19T12:17:38;28.30;99.90
10175;DHT22;18221;38.704;0.152;2022-08-19T12:20:07;28.50;99.90
10175;DHT22;18221;38.704;0.152;2022-08-19T12:22:36;28.50;99.90
10175;DHT22;18221;38.704;0.152;2022-08-19T12:25:06;28.50;99.90
10175;DHT22;18221;38.704;0.152;2022-08-19T12:27:35;28.60;99.90
10175;DHT22;18221;38.704;0.152;2022-08-19T12:30:06;28.50;99.90
10175;DHT22;18221;38.704;0.152;2022-08-19T12:32:36;28.40;99.90
10175;DHT22;18221;38.704;0.152;2022-08-19T12:35:05;28.60;99.90
10175;DHT22;18221;38.704;0.152;2022-08-19T12:37:36;28.70;99.90
10175;DHT22;18221;38.704;0.152;2022-08-19T12:40:05;28.90;99.90
10175;DHT22;18221;38.704;0.152;2022-08-19T12:42:34;28.90;99.90
10175;DHT22;18221;38.704;0.152;2022-08-19T12:45:02;28.90;99.90
10175;DHT22;18221;38.704;0.152;2022-08-19T12:47:31;28.70;99.90
10175;DHT22;18221;38.704;0.152;2022-08-19T12:50:00;28.70;99.90
10175;DHT22;18221;38.704;0.152;2022-08-19T12:52:28;28.60;99.90
10175;DHT22;18221;38.704;0.152;2022-08-19T12:54:57;28.60;99.90
10175;DHT22;18221;38.704;0.152;2022-08-19T12:57:27;28.80;99.90
10175;DHT22;18221;38.704;0.152;2022-08-19T12:59:59;28.80;99.90
10175;DHT22;18221;38.704;0.152;2022-08-19T13:02:31;28.70;99.90
10175;DHT22;18221;38.704;0.152;2022-08-19T13:05:00;28.70;99.90
10175;DHT22;18221;38.704;0.152;2022-08-19T13:07:28;28.80;99.90
10175;DHT22;18221;38.704;0.152;2022-08-19T13:09:56;28.80;99.90
10175;DHT22;18221;38.704;0.152;2022-08-19T13:12:24;28.80;99.90
10175;DHT22;18221;38.704;0.152;2022-08-19T13:14:52;28.90;99.90
10175;DHT22;18221;38.704;0.152;2022-08-19T13:17:20;28.70;99.90
10175;DHT22;18221;38.704;0.152;2022-08-19T13:19:50;28.70;99.90
10175;DHT22;18221;38.704;0.152;2022-08-19T13:22:18;28.70;99.90
10175;DHT22;18221;38.704;0.152;2022-08-19T13:24:46;28.80;99.90
10175;DHT22;18221;38.704;0.152;2022-08-19T13:27:14;28.80;99.90
10175;DHT22;18221;38.704;0.152;2022-08-19T13:29:42;28.80;99.90
10175;DHT22;18221;38.704;0.152;2022-08-19T13:32:28;28.90;99.90
10175;DHT22;18221;38.704;0.152;2022-08-19T13:35:16;29.00;99.90
10175;DHT22;18221;38.704;0.152;2022-08-19T13:37:45;29.20;99.90
10175;DHT22;18221;38.704;0.152;2022-08-19T13:40:15;29.00;99.90
10175;DHT22;18221;38.704;0.152;2022-08-19T13:42:47;29.10;99.90
10175;DHT22;18221;38.704;0.152;2022-08-19T13:45:18;29.10;99.90
10175;DHT22;18221;38.704;0.152;2022-08-19T13:47:47;29.00;99.90
10175;DHT22;18221;38.704;0.152;2022-08-19T13:50:19;29.00;99.90
10175;DHT22;18221;38.704;0.152;2022-08-19T13:52:50;29.10;99.90
10175;DHT22;18221;38.704;0.152;2022-08-19T13:55:19;29.20;99.90
10175;DHT22;18221;38.704;0.152;2022-08-19T13:57:50;29.30;99.90
10175;DHT22;18221;38.704;0.152;2022-08-19T14:00:19;29.10;99.90
10175;DHT22;18221;38.704;0.152;2022-08-19T14:02:51;29.30;99.90
10175;DHT22;18221;38.704;0.152;2022-08-19T14:05:22;29.20;99.90
10175;DHT22;18221;38.704;0.152;2022-08-19T14:07:51;29.30;99.90
10175;DHT22;18221;38.704;0.152;2022-08-19T14:10:19;29.30;99.90
10175;DHT22;18221;38.704;0.152;2022-08-19T14:12:51;29.30;99.90
10175;DHT22;18221;38.704;0.152;2022-08-19T14:15:21;29.40;99.90
10175;DHT22;18221;38.704;0.152;2022-08-19T14:17:50;29.50;99.90
10175;DHT22;18221;38.704;0.152;2022-08-19T14:20:18;29.40;99.90
10175;DHT22;18221;38.704;0.152;2022-08-19T14:22:48;29.50;99.90
10175;DHT22;18221;38.704;0.152;2022-08-19T14:25:19;29.70;99.90
10175;DHT22;18221;38.704;0.152;2022-08-19T14:27:48;29.60;99.90
10175;DHT22;18221;38.704;0.152;2022-08-19T14:30:19;29.60;99.90
10175;DHT22;18221;38.704;0.152;2022-08-19T14:32:51;29.60;99.90
10175;DHT22;18221;38.704;0.152;2022-08-19T14:35:21;29.60;99.90
10175;DHT22;18221;38.704;0.152;2022-08-19T14:37:51;29.60;99.90
10175;DHT22;18221;38.704;0.152;2022-08-19T14:40:23;29.80;99.90
10175;DHT22;18221;38.704;0.152;2022-08-19T14:42:55;29.60;99.90
10175;DHT22;18221;38.704;0.152;2022-08-19T14:45:26;29.70;99.90
10175;DHT22;18221;38.704;0.152;2022-08-19T14:47:55;29.50;99.90
10175;DHT22;18221;38.704;0.152;2022-08-19T14:50:26;29.60;99.90
10175;DHT22;18221;38.704;0.152;2022-08-19T14:52:59;29.60;99.90
10175;DHT22;18221;38.704;0.152;2022-08-19T14:55:29;29.60;99.90
10175;DHT22;18221;38.704;0.152;2022-08-19T14:57:58;29.70;99.90
10175;DHT22;18221;38.704;0.152;2022-08-19T15:00:26;29.70;99.90
10175;DHT22;18221;38.704;0.152;2022-08-19T15:02:54;29.70;99.90
10175;DHT22;18221;38.704;0.152;2022-08-19T15:05:22;29.70;99.90
10175;DHT22;18221;38.704;0.152;2022-08-19T15:07:52;29.60;99.90
10175;DHT22;18221;38.704;0.152;2022-08-19T15:10:22;29.70;99.90
10175;DHT22;18221;38.704;0.152;2022-08-19T15:12:51;29.50;99.90
10175;DHT22;18221;38.704;0.152;2022-08-19T15:15:20;29.40;99.90
10175;DHT22;18221;38.704;0.152;2022-08-19T15:17:48;29.40;99.90
10175;DHT22;18221;38.704;0.152;2022-08-19T15:20:19;29.60;99.90
10175;DHT22;18221;38.704;0.152;2022-08-19T15:22:48;29.50;99.90
10175;DHT22;18221;38.704;0.152;2022-08-19T15:25:18;29.30;99.90
10175;DHT22;18221;38.704;0.152;2022-08-19T15:27:46;29.40;99.90
10175;DHT22;18221;38.704;0.152;2022-08-19T15:30:20;29.50;99.90
10175;DHT22;18221;38.704;0.152;2022-08-19T15:32:50;29.60;99.90
10175;DHT22;18221;38.704;0.152;2022-08-19T15:35:21;29.60;99.90
10175;DHT22;18221;38.704;0.152;2022-08-19T15:37:52;29.60;99.90
10175;DHT22;18221;38.704;0.152;2022-08-19T15:40:22;29.70;99.90
10175;DHT22;18221;38.704;0.152;2022-08-19T15:42:51;29.80;99.90
10175;DHT22;18221;38.704;0.152;2022-08-19T15:45:20;29.70;99.90
10175;DHT22;18221;38.704;0.152;2022-08-19T15:47:48;29.80;99.90
10175;DHT22;18221;38.704;0.152;2022-08-19T15:50:19;29.80;99.90
10175;DHT22;18221;38.704;0.152;2022-08-19T15:52:51;29.80;99.90
10175;DHT22;18221;38.704;0.152;2022-08-19T15:55:24;29.70;99.90
10175;DHT22;18221;38.704;0.152;2022-08-19T15:57:54;29.70;99.90
10175;DHT22;18221;38.704;0.152;2022-08-19T16:00:39;29.70;99.90
10175;DHT22;18221;38.704;0.152;2022-08-19T16:03:24;29.60;99.90